createdAt,value
2022-07-26T00:00:10.241Z,100.00
2022-07-26T00:02:37.177Z,100.00
2022-07-26T00:05:04.538Z,100.00
2022-07-26T00:07:36.577Z,100.00
2022-07-26T00:10:05.462Z,100.00
2022-07-26T00:12:33.332Z,100.00
2022-07-26T00:15:00.110Z,100.00
2022-07-26T00:17:27.923Z,100.00
2022-07-26T00:19:57.531Z,100.00
2022-07-26T00:22:36.312Z,100.00
2022-07-26T00:25:05.818Z,100.00
2022-07-26T00:27:36.235Z,100.00
2022-07-26T00:30:08.873Z,100.00
2022-07-26T00:32:36.387Z,100.00
2022-07-26T00:35:04.149Z,100.00
2022-07-26T00:37:30.906Z,100.00
2022-07-26T00:40:00.155Z,100.00
2022-07-26T00:42:27.109Z,100.00
2022-07-26T00:44:53.799Z,100.00
2022-07-26T00:47:20.451Z,100.00
2022-07-26T00:49:47.099Z,100.00
2022-07-26T00:52:14.002Z,100.00
2022-07-26T00:54:43.912Z,100.00
2022-07-26T00:57:10.739Z,100.00
2022-07-26T00:59:37.907Z,100.00
2022-07-26T01:02:05.735Z,100.00
2022-07-26T01:04:32.527Z,100.00
2022-07-26T01:06:59.620Z,100.00
2022-07-26T01:09:26.553Z,100.00
2022-07-26T01:11:53.419Z,100.00
2022-07-26T01:14:21.536Z,100.00
2022-07-26T01:16:48.238Z,100.00
2022-07-26T01:19:15.349Z,100.00
2022-07-26T01:21:42.036Z,100.00
2022-07-26T01:24:09.367Z,100.00
2022-07-26T01:26:36.505Z,100.00
2022-07-26T01:29:03.783Z,100.00
2022-07-26T01:31:30.608Z,100.00
2022-07-26T01:33:57.785Z,100.00
2022-07-26T01:36:24.440Z,100.00
2022-07-26T01:38:51.081Z,100.00
2022-07-26T01:41:17.887Z,100.00
2022-07-26T01:43:57.566Z,100.00
2022-07-26T01:46:24.920Z,100.00
2022-07-26T01:48:52.416Z,100.00
2022-07-26T01:51:22.078Z,100.00
2022-07-26T01:53:48.777Z,100.00
2022-07-26T01:56:17.085Z,100.00
2022-07-26T01:58:44.606Z,100.00
2022-07-26T02:01:11.354Z,100.00
2022-07-26T02:03:38.116Z,100.00
2022-07-26T02:06:05.369Z,100.00
2022-07-26T02:08:32.841Z,100.00
2022-07-26T02:11:00.495Z,100.00
2022-07-26T02:13:38.930Z,100.00
2022-07-26T02:16:08.801Z,100.00
2022-07-26T02:18:37.815Z,100.00
2022-07-26T02:21:05.868Z,100.00
2022-07-26T02:23:33.726Z,100.00
2022-07-26T02:26:00.699Z,100.00
2022-07-26T02:28:28.179Z,100.00
2022-07-26T02:30:55.038Z,100.00
2022-07-26T02:33:23.604Z,100.00
2022-07-26T02:35:50.421Z,100.00
2022-07-26T02:38:17.433Z,100.00
2022-07-26T02:40:44.380Z,100.00
2022-07-26T02:43:11.269Z,100.00
2022-07-26T02:45:38.403Z,100.00
2022-07-26T02:48:05.457Z,100.00
2022-07-26T02:50:32.145Z,100.00
2022-07-26T02:52:58.816Z,100.00
2022-07-26T02:55:26.316Z,100.00
2022-07-26T02:57:53.060Z,100.00
2022-07-26T03:00:23.492Z,100.00
2022-07-26T03:02:51.380Z,100.00
2022-07-26T03:05:18.610Z,100.00
2022-07-26T03:07:45.384Z,100.00
2022-07-26T03:10:12.073Z,100.00
2022-07-26T03:12:38.703Z,100.00
2022-07-26T03:15:06.066Z,100.00
2022-07-26T03:17:32.722Z,100.00
2022-07-26T03:19:59.440Z,100.00
2022-07-26T03:22:26.048Z,100.00
2022-07-26T03:24:52.747Z,100.00
2022-07-26T03:27:19.368Z,100.00
2022-07-26T03:29:46.072Z,100.00
2022-07-26T03:32:12.723Z,100.00
2022-07-26T03:34:39.352Z,100.00
2022-07-26T03:37:06.873Z,100.00
2022-07-26T03:39:33.495Z,100.00
2022-07-26T03:42:00.139Z,100.00
2022-07-26T03:44:26.758Z,100.00
2022-07-26T03:46:53.380Z,100.00
2022-07-26T03:49:20.082Z,100.00
2022-07-26T03:51:46.805Z,100.00
2022-07-26T03:54:13.578Z,100.00
2022-07-26T03:56:40.825Z,100.00
2022-07-26T03:59:09.228Z,100.00
2022-07-26T04:01:42.202Z,100.00
2022-07-26T04:04:09.943Z,100.00
2022-07-26T04:06:39.205Z,100.00
2022-07-26T04:09:06.540Z,100.00
2022-07-26T04:11:35.012Z,100.00
2022-07-26T04:14:01.637Z,100.00
2022-07-26T04:16:28.377Z,100.00
2022-07-26T04:18:55.167Z,100.00
2022-07-26T04:21:22.226Z,100.00
2022-07-26T04:23:51.338Z,100.00
2022-07-26T04:26:20.453Z,100.00
2022-07-26T04:28:47.469Z,100.00
2022-07-26T04:31:14.279Z,100.00
2022-07-26T04:33:41.010Z,100.00
2022-07-26T04:36:07.811Z,100.00
2022-07-26T04:38:34.472Z,100.00
2022-07-26T04:41:01.192Z,100.00
2022-07-26T04:43:27.862Z,100.00
2022-07-26T04:45:54.714Z,100.00
2022-07-26T04:48:21.384Z,100.00
2022-07-26T04:50:48.494Z,100.00
2022-07-26T04:53:15.325Z,100.00
2022-07-26T04:55:42.835Z,100.00
2022-07-26T04:58:09.790Z,100.00
2022-07-26T05:00:51.311Z,100.00
2022-07-26T05:03:25.205Z,100.00
2022-07-26T05:05:52.456Z,100.00
2022-07-26T05:08:19.297Z,100.00
2022-07-26T05:10:46.039Z,100.00
2022-07-26T05:13:12.722Z,100.00
2022-07-26T05:15:39.422Z,100.00
2022-07-26T05:18:10.644Z,100.00
2022-07-26T05:20:39.491Z,100.00
2022-07-26T05:23:06.300Z,100.00
2022-07-26T05:25:32.894Z,100.00
2022-07-26T05:27:59.608Z,100.00
2022-07-26T05:30:26.434Z,100.00
2022-07-26T05:32:53.207Z,100.00
2022-07-26T05:35:20.102Z,100.00
2022-07-26T05:37:46.926Z,100.00
2022-07-26T05:40:14.018Z,100.00
2022-07-26T05:42:40.817Z,100.00
2022-07-26T05:45:08.056Z,100.00
2022-07-26T05:47:34.707Z,100.00
2022-07-26T05:50:01.466Z,100.00
2022-07-26T05:52:28.206Z,100.00
2022-07-26T05:54:54.840Z,100.00
2022-07-26T05:57:21.488Z,100.00
2022-07-26T05:59:48.080Z,100.00
2022-07-26T06:02:14.844Z,100.00
2022-07-26T06:04:41.613Z,100.00
2022-07-26T06:07:08.403Z,100.00
2022-07-26T06:09:37.909Z,95.14
2022-07-26T06:12:06.233Z,96.66
2022-07-26T06:14:34.269Z,92.99
2022-07-26T06:17:01.316Z,84.83
2022-07-26T06:19:27.980Z,89.01
2022-07-26T06:21:54.618Z,86.68
2022-07-26T06:24:21.271Z,83.89
2022-07-26T06:26:54.745Z,91.75
2022-07-26T06:29:23.968Z,93.22
2022-07-26T06:31:58.994Z,88.77
2022-07-26T06:34:25.828Z,91.84
2022-07-26T06:36:52.431Z,94.05
2022-07-26T06:39:19.041Z,99.14
2022-07-26T06:41:45.663Z,95.16
2022-07-26T06:44:12.463Z,94.58
2022-07-26T06:46:39.255Z,91.13
2022-07-26T06:49:06.014Z,88.63
2022-07-26T06:51:33.976Z,86.62
2022-07-26T06:54:00.990Z,86.01
2022-07-26T06:56:27.956Z,86.67
2022-07-26T06:58:56.329Z,83.01
2022-07-26T07:01:57.811Z,85.76
2022-07-26T07:04:10.153Z,82.97
2022-07-26T07:06:37.119Z,81.03
2022-07-26T07:09:03.984Z,81.04
2022-07-26T07:11:35.258Z,86.70
2022-07-26T07:14:03.325Z,84.90
2022-07-26T07:16:30.364Z,87.49
2022-07-26T07:18:57.168Z,84.07
2022-07-26T07:21:23.771Z,79.51
2022-07-26T07:23:50.393Z,78.56
2022-07-26T07:26:17.134Z,78.44
2022-07-26T07:28:43.732Z,81.34
2022-07-26T07:31:10.392Z,76.53
2022-07-26T07:33:52.468Z,74.82
2022-07-26T07:36:20.350Z,77.45
2022-07-26T07:38:48.181Z,75.55
2022-07-26T07:41:14.833Z,73.93
2022-07-26T07:43:41.450Z,74.20
2022-07-26T07:46:08.282Z,70.40
2022-07-26T07:48:35.034Z,73.40
2022-07-26T07:51:01.777Z,72.08
2022-07-26T07:53:28.379Z,70.43
2022-07-26T07:55:57.573Z,77.55
2022-07-26T07:58:24.176Z,74.59
2022-07-26T08:00:50.791Z,69.72
2022-07-26T08:03:18.007Z,72.24
2022-07-26T08:05:46.697Z,68.02
2022-07-26T08:08:16.982Z,71.25
2022-07-26T08:10:52.041Z,72.76
2022-07-26T08:13:21.261Z,69.17
2022-07-26T08:15:49.490Z,75.11
2022-07-26T08:18:16.191Z,76.92
2022-07-26T08:20:43.657Z,73.51
2022-07-26T08:23:11.368Z,72.75
2022-07-26T08:25:50.082Z,74.92
2022-07-26T08:28:45.126Z,74.90
2022-07-26T08:31:09.443Z,78.21
2022-07-26T08:33:36.179Z,74.57
2022-07-26T08:36:07.597Z,75.47
2022-07-26T08:38:34.189Z,77.56
2022-07-26T08:41:00.882Z,79.99
2022-07-26T08:43:27.603Z,73.96
2022-07-26T08:46:00.218Z,74.83
2022-07-26T08:48:27.426Z,65.64
2022-07-26T08:50:55.607Z,67.75
2022-07-26T08:53:23.042Z,67.14
2022-07-26T08:56:06.313Z,62.95
2022-07-26T08:58:40.825Z,63.15
2022-07-26T09:01:12.076Z,61.00
2022-07-26T09:03:39.160Z,62.34
2022-07-26T09:06:28.101Z,67.80
2022-07-26T09:09:12.680Z,66.47
2022-07-26T09:11:40.596Z,64.32
2022-07-26T09:14:07.285Z,60.56
2022-07-26T09:16:38.663Z,59.98
2022-07-26T09:19:22.696Z,58.82
2022-07-26T09:21:49.935Z,60.63
2022-07-26T09:24:38.520Z,60.24
2022-07-26T09:27:06.317Z,58.70
2022-07-26T09:29:43.878Z,56.92
2022-07-26T09:32:19.269Z,59.01
2022-07-26T09:34:52.539Z,59.31
2022-07-26T09:37:33.581Z,62.39
2022-07-26T09:40:04.351Z,62.59
2022-07-26T09:42:31.075Z,60.87
2022-07-26T09:44:58.160Z,61.71
2022-07-26T09:47:40.968Z,61.55
2022-07-26T09:50:16.626Z,62.53
2022-07-26T09:53:07.383Z,63.47
2022-07-26T09:55:55.316Z,66.66
2022-07-26T09:58:23.079Z,67.65
2022-07-26T10:00:49.938Z,69.43
2022-07-26T10:03:16.695Z,71.19
2022-07-26T10:05:43.433Z,72.10
2022-07-26T10:08:10.418Z,71.49
2022-07-26T10:10:42.680Z,71.01
2022-07-26T10:13:10.314Z,72.56
2022-07-26T10:15:48.576Z,71.83
2022-07-26T10:18:38.047Z,69.91
2022-07-26T10:21:23.303Z,66.89
2022-07-26T10:24:01.450Z,65.02
2022-07-26T10:26:31.241Z,59.29
2022-07-26T10:29:15.790Z,58.02
2022-07-26T10:32:00.878Z,57.45
2022-07-26T10:34:31.933Z,56.20
2022-07-26T10:37:00.212Z,58.50
2022-07-26T10:39:27.156Z,58.01
2022-07-26T10:42:08.043Z,57.62
2022-07-26T10:44:39.141Z,59.67
2022-07-26T10:47:15.905Z,62.04
2022-07-26T10:49:57.730Z,57.96
2022-07-26T10:52:27.317Z,60.26
2022-07-26T10:54:56.977Z,60.11
2022-07-26T10:57:30.619Z,59.20
2022-07-26T10:59:57.573Z,57.81
2022-07-26T11:02:32.367Z,57.60
2022-07-26T11:05:01.076Z,60.09
2022-07-26T11:07:28.860Z,53.38
2022-07-26T11:09:56.771Z,51.45
2022-07-26T11:12:24.089Z,51.42
2022-07-26T11:14:51.147Z,50.30
2022-07-26T11:17:28.778Z,51.17
2022-07-26T11:19:56.363Z,50.32
2022-07-26T11:22:32.114Z,48.94
2022-07-26T11:24:58.927Z,50.00
2022-07-26T11:27:25.665Z,54.50
2022-07-26T11:29:55.124Z,52.40
2022-07-26T11:32:25.326Z,57.56
2022-07-26T11:35:10.653Z,69.99
2022-07-26T11:37:37.879Z,78.99
2022-07-26T11:40:05.558Z,83.86
2022-07-26T11:42:32.917Z,93.88
2022-07-26T11:45:03.595Z,100.00
2022-07-26T11:47:31.352Z,100.00
2022-07-26T11:50:20.011Z,100.00
2022-07-26T11:52:53.816Z,100.00
2022-07-26T11:55:47.712Z,100.00
2022-07-26T11:58:14.609Z,100.00
2022-07-26T12:00:41.242Z,100.00
2022-07-26T12:03:07.896Z,100.00
2022-07-26T12:05:34.856Z,100.00
2022-07-26T12:08:04.280Z,100.00
2022-07-26T12:10:31.479Z,100.00
2022-07-26T12:13:15.504Z,100.00
2022-07-26T12:15:49.514Z,100.00
2022-07-26T12:18:42.512Z,100.00
2022-07-26T12:21:09.759Z,100.00
2022-07-26T12:23:54.579Z,100.00
2022-07-26T12:26:26.747Z,100.00
2022-07-26T12:28:53.840Z,100.00
2022-07-26T12:31:24.579Z,100.00
2022-07-26T12:33:56.019Z,100.00
2022-07-26T12:36:27.135Z,100.00
2022-07-26T12:39:04.929Z,100.00
2022-07-26T12:41:42.617Z,100.00
2022-07-26T12:44:15.709Z,100.00
2022-07-26T12:46:46.587Z,100.00
2022-07-26T12:49:13.516Z,100.00
2022-07-26T12:51:40.662Z,100.00
2022-07-26T12:54:07.649Z,97.91
2022-07-26T12:56:34.582Z,100.00
2022-07-26T12:59:01.602Z,100.00
2022-07-26T13:01:29.740Z,97.91
2022-07-26T13:03:56.616Z,100.00
2022-07-26T13:06:23.671Z,99.29
2022-07-26T13:08:50.565Z,99.70
2022-07-26T13:11:17.298Z,100.00
2022-07-26T13:13:44.029Z,100.00
2022-07-26T13:16:12.375Z,100.00
2022-07-26T13:18:39.419Z,100.00
2022-07-26T13:21:06.259Z,98.66
2022-07-26T13:23:34.324Z,98.88
2022-07-26T13:26:02.850Z,100.00
2022-07-26T13:28:30.173Z,100.00
2022-07-26T13:30:56.928Z,92.43
2022-07-26T13:33:23.625Z,95.88
2022-07-26T13:35:51.025Z,96.04
2022-07-26T13:38:19.803Z,92.73
2022-07-26T13:40:46.842Z,99.36
2022-07-26T13:43:14.393Z,96.40
2022-07-26T13:45:51.466Z,97.08
2022-07-26T13:48:23.631Z,97.66
2022-07-26T13:50:50.457Z,94.09
2022-07-26T13:53:17.119Z,95.25
2022-07-26T13:55:44.626Z,91.37
2022-07-26T13:58:11.306Z,89.24
2022-07-26T14:00:40.508Z,91.10
2022-07-26T14:03:07.450Z,92.28
2022-07-26T14:05:37.091Z,90.20
2022-07-26T14:08:05.031Z,87.63
2022-07-26T14:10:32.965Z,88.86
2022-07-26T14:13:00.725Z,90.04
2022-07-26T14:15:27.681Z,85.89
2022-07-26T14:17:58.371Z,87.81
2022-07-26T14:20:27.183Z,88.43
2022-07-26T14:22:56.300Z,89.54
2022-07-26T14:25:24.134Z,86.02
2022-07-26T14:27:51.874Z,88.69
2022-07-26T14:30:18.954Z,84.00
2022-07-26T14:32:45.647Z,86.12
2022-07-26T14:35:13.628Z,86.66
2022-07-26T14:37:44.545Z,87.87
2022-07-26T14:40:17.875Z,87.51
2022-07-26T14:42:45.935Z,81.84
2022-07-26T14:47:39.681Z,82.88
2022-07-26T14:50:08.111Z,79.22
2022-07-26T14:52:40.238Z,80.02
2022-07-26T14:55:07.983Z,81.44
2022-07-26T14:57:39.036Z,80.73
2022-07-26T15:00:11.816Z,79.57
2022-07-26T15:02:48.883Z,80.63
2022-07-26T15:05:16.927Z,82.54
2022-07-26T15:07:47.753Z,82.70
2022-07-26T15:10:15.294Z,81.17
2022-07-26T15:12:42.736Z,81.60
2022-07-26T15:15:10.688Z,80.39
2022-07-26T15:17:42.841Z,78.94
2022-07-26T15:20:10.534Z,77.44
2022-07-26T15:22:37.230Z,77.20
2022-07-26T15:25:05.431Z,75.62
2022-07-26T15:27:32.590Z,76.56
2022-07-26T15:30:04.249Z,76.05
2022-07-26T15:32:33.502Z,75.42
2022-07-26T15:35:01.060Z,73.60
2022-07-26T15:37:27.989Z,72.25
2022-07-26T15:39:54.728Z,75.10
2022-07-26T15:42:23.198Z,74.19
2022-07-26T15:44:50.852Z,73.86
2022-07-26T15:47:43.413Z,76.29
2022-07-26T15:50:07.745Z,76.12
2022-07-26T15:52:41.231Z,76.85
2022-07-26T15:55:19.725Z,73.31
2022-07-26T15:57:52.148Z,74.79
2022-07-26T16:00:25.726Z,71.39
2022-07-26T16:02:55.949Z,72.28
2022-07-26T16:05:24.640Z,73.55
2022-07-26T16:07:53.892Z,73.57
2022-07-26T16:10:24.164Z,72.53
2022-07-26T16:13:00.165Z,74.47
2022-07-26T16:15:31.202Z,75.57
2022-07-26T16:18:02.954Z,76.51
2022-07-26T16:20:33.782Z,76.01
2022-07-26T16:23:00.818Z,73.56
2022-07-26T16:27:54.182Z,70.41
2022-07-26T16:30:38.715Z,70.61
2022-07-26T16:33:29.716Z,67.23
2022-07-26T16:36:23.835Z,60.67
2022-07-26T16:38:58.520Z,59.83
2022-07-26T16:41:25.698Z,60.16
2022-07-26T16:43:55.911Z,61.40
2022-07-26T16:46:23.248Z,62.25
2022-07-26T16:48:50.096Z,59.35
2022-07-26T16:51:16.897Z,60.44
2022-07-26T16:53:43.551Z,61.76
2022-07-26T16:56:11.730Z,60.44
2022-07-26T16:58:39.280Z,60.46
2022-07-26T17:01:06.747Z,60.86
2022-07-26T17:03:35.781Z,61.50
2022-07-26T17:06:06.753Z,62.32
2022-07-26T17:08:33.790Z,64.70
2022-07-26T17:11:00.844Z,63.50
2022-07-26T17:13:29.647Z,64.11
2022-07-26T17:15:57.748Z,62.52
2022-07-26T17:18:26.066Z,67.00
2022-07-26T17:20:52.752Z,64.81
2022-07-26T17:23:19.594Z,64.93
2022-07-26T17:25:46.857Z,65.51
2022-07-26T17:28:13.980Z,68.66
2022-07-26T17:30:40.783Z,67.87
2022-07-26T17:33:09.365Z,64.70
2022-07-26T17:35:37.124Z,67.20
2022-07-26T17:38:04.490Z,68.70
2022-07-26T17:40:31.753Z,73.31
2022-07-26T17:42:59.302Z,65.55
2022-07-26T17:45:26.560Z,67.93
2022-07-26T17:47:54.610Z,68.21
2022-07-26T17:50:38.027Z,68.04
2022-07-26T17:53:05.523Z,67.59
2022-07-26T17:55:32.371Z,70.24
2022-07-26T17:57:59.071Z,67.37
2022-07-26T18:00:29.012Z,69.15
2022-07-26T18:02:56.932Z,70.30
2022-07-26T18:05:29.954Z,69.37
2022-07-26T18:08:00.583Z,72.76
2022-07-26T18:10:28.554Z,71.54
2022-07-26T18:12:55.613Z,73.02
2022-07-26T18:15:22.493Z,74.25
2022-07-26T18:17:50.547Z,72.80
2022-07-26T18:20:17.249Z,72.84
2022-07-26T18:22:45.943Z,75.27
2022-07-26T18:25:18.685Z,75.35
2022-07-26T18:28:16.843Z,72.04
2022-07-26T18:31:00.387Z,74.28
2022-07-26T18:33:28.099Z,74.70
2022-07-26T18:36:00.887Z,76.39
2022-07-26T18:38:27.919Z,75.24
2022-07-26T18:40:56.136Z,77.67
2022-07-26T18:43:26.597Z,77.91
2022-07-26T18:45:59.275Z,78.16
2022-07-26T18:48:32.029Z,78.16
2022-07-26T18:51:20.341Z,78.22
2022-07-26T18:53:52.856Z,79.47
2022-07-26T18:56:41.026Z,75.90
2022-07-26T18:59:12.880Z,80.47
2022-07-26T19:01:42.278Z,79.51
2022-07-26T19:04:12.715Z,78.38
2022-07-26T19:06:40.195Z,81.15
2022-07-26T19:09:07.058Z,78.51
2022-07-26T19:11:36.342Z,75.63
2022-07-26T19:14:05.516Z,76.11
2022-07-26T19:16:32.772Z,78.73
2022-07-26T19:19:01.404Z,78.20
2022-07-26T19:21:28.166Z,77.60
2022-07-26T19:23:56.186Z,79.14
2022-07-26T19:26:25.210Z,81.16
2022-07-26T19:28:58.566Z,80.97
2022-07-26T19:31:42.937Z,80.94
2022-07-26T19:34:23.781Z,79.53
2022-07-26T19:36:55.268Z,80.63
2022-07-26T19:39:23.363Z,81.31
2022-07-26T19:41:50.960Z,80.20
2022-07-26T19:44:17.854Z,79.62
2022-07-26T19:46:44.913Z,81.30
2022-07-26T19:49:12.808Z,82.15
2022-07-26T19:51:39.964Z,82.01
2022-07-26T19:54:06.642Z,81.97
2022-07-26T19:56:33.495Z,81.89
2022-07-26T19:59:00.468Z,82.42
2022-07-26T20:01:28.483Z,81.39
2022-07-26T20:03:56.110Z,83.30
2022-07-26T20:06:23.500Z,83.04
2022-07-26T20:08:50.564Z,83.63
2022-07-26T20:11:22.700Z,84.21
2022-07-26T20:13:49.753Z,84.31
2022-07-26T20:16:17.495Z,86.23
2022-07-26T20:18:44.146Z,84.35
2022-07-26T20:21:13.746Z,83.33
2022-07-26T20:23:44.157Z,84.29
2022-07-26T20:26:13.516Z,84.13
2022-07-26T20:28:41.572Z,83.56
2022-07-26T20:31:08.531Z,83.40
2022-07-26T20:33:35.238Z,83.14
2022-07-26T20:36:01.853Z,83.58
2022-07-26T20:38:28.561Z,83.87
2022-07-26T20:40:55.931Z,84.26
2022-07-26T20:43:24.207Z,82.84
2022-07-26T20:45:53.840Z,85.66
2022-07-26T20:48:20.639Z,85.58
2022-07-26T20:50:47.283Z,84.01
2022-07-26T20:53:13.962Z,82.57
2022-07-26T20:55:40.576Z,83.68
2022-07-26T20:58:07.201Z,88.48
2022-07-26T21:00:33.860Z,93.14
2022-07-26T21:03:01.077Z,94.54
2022-07-26T21:05:32.327Z,94.91
2022-07-26T21:08:00.141Z,97.02
2022-07-26T21:10:29.322Z,99.58
2022-07-26T21:13:01.494Z,99.45
2022-07-26T21:15:29.865Z,99.32
2022-07-26T21:17:56.916Z,98.71
2022-07-26T21:20:23.546Z,95.15
2022-07-26T21:22:50.316Z,94.03
2022-07-26T21:25:17.077Z,94.96
2022-07-26T21:27:43.909Z,96.85
2022-07-26T21:30:11.668Z,96.49
2022-07-26T21:32:38.307Z,97.17
2022-07-26T21:35:05.550Z,99.08
2022-07-26T21:37:32.325Z,100.00
2022-07-26T21:40:00.708Z,100.00
2022-07-26T21:42:28.024Z,100.00
2022-07-26T21:44:54.810Z,98.63
2022-07-26T21:47:22.055Z,100.00
2022-07-26T21:49:50.907Z,100.00
2022-07-26T21:52:17.707Z,100.00
2022-07-26T21:54:44.433Z,100.00
2022-07-26T21:57:11.140Z,100.00
2022-07-26T21:59:37.781Z,100.00
2022-07-26T22:02:04.509Z,100.00
2022-07-26T22:04:31.270Z,100.00
2022-07-26T22:06:57.966Z,100.00
2022-07-26T22:09:33.775Z,100.00
2022-07-26T22:12:00.777Z,100.00
2022-07-26T22:14:27.376Z,100.00
2022-07-26T22:16:54.042Z,100.00
2022-07-26T22:19:20.823Z,100.00
2022-07-26T22:21:47.436Z,100.00
2022-07-26T22:24:14.037Z,100.00
2022-07-26T22:26:42.109Z,100.00
2022-07-26T22:29:09.769Z,100.00
2022-07-26T22:31:36.616Z,100.00
2022-07-26T22:34:03.423Z,100.00
2022-07-26T22:36:30.069Z,100.00
2022-07-26T22:39:03.331Z,100.00
2022-07-26T22:41:32.615Z,100.00
2022-07-26T22:44:00.588Z,100.00
2022-07-26T22:46:27.805Z,100.00
2022-07-26T22:48:56.169Z,100.00
2022-07-26T22:51:22.813Z,100.00
2022-07-26T22:53:49.497Z,100.00
2022-07-26T22:56:19.659Z,100.00
2022-07-26T22:58:46.770Z,100.00
2022-07-26T23:01:13.742Z,100.00
2022-07-26T23:03:41.141Z,100.00
2022-07-26T23:06:14.921Z,100.00
2022-07-26T23:08:56.532Z,100.00
2022-07-26T23:11:23.615Z,100.00
2022-07-26T23:13:50.255Z,100.00
2022-07-26T23:16:25.416Z,100.00
2022-07-26T23:18:52.886Z,100.00
2022-07-26T23:21:19.579Z,100.00
2022-07-26T23:23:46.413Z,100.00
2022-07-26T23:26:13.247Z,100.00
2022-07-26T23:28:39.893Z,100.00
2022-07-26T23:31:11.510Z,100.00
2022-07-26T23:33:52.441Z,100.00
2022-07-26T23:36:27.602Z,100.00
2022-07-26T23:39:05.774Z,100.00
2022-07-26T23:41:32.553Z,100.00
2022-07-26T23:43:59.234Z,100.00
2022-07-26T23:46:26.523Z,100.00
2022-07-26T23:48:54.210Z,100.00
2022-07-26T23:51:23.058Z,100.00
2022-07-26T23:53:50.347Z,100.00
2022-07-26T23:56:17.532Z,100.00
2022-07-26T23:58:44.771Z,100.00
